createdAt,value
2018-05-17T00:01:15.743Z,16.05
2018-05-17T00:03:44.858Z,15.60
2018-05-17T00:06:13.958Z,17.20
2018-05-17T00:08:43.075Z,14.97
2018-05-17T00:11:12.171Z,14.67
2018-05-17T00:13:41.280Z,15.50
2018-05-17T00:16:10.374Z,16.20
2018-05-17T00:18:39.475Z,17.80
2018-05-17T00:21:08.576Z,16.40
2018-05-17T00:23:37.679Z,17.23
2018-05-17T00:26:06.774Z,16.17
2018-05-17T00:28:35.868Z,17.07
2018-05-17T00:31:04.958Z,17.03
2018-05-17T00:33:34.067Z,18.20
2018-05-17T00:36:03.157Z,17.43
2018-05-17T00:38:32.263Z,17.70
2018-05-17T00:41:01.354Z,17.90
2018-05-17T00:43:30.450Z,17.57
2018-05-17T00:45:59.546Z,18.57
2018-05-17T00:48:28.643Z,21.13
2018-05-17T00:50:57.738Z,18.63
2018-05-17T00:53:30.710Z,18.03
2018-05-17T00:55:59.802Z,21.07
2018-05-17T00:58:28.912Z,18.93
2018-05-17T01:00:58.007Z,20.60
2018-05-17T01:03:27.110Z,19.20
2018-05-17T01:05:56.205Z,16.90
2018-05-17T01:08:25.312Z,17.40
2018-05-17T01:10:54.410Z,15.30
2018-05-17T01:13:23.511Z,14.93
2018-05-17T01:15:52.607Z,16.33
2018-05-17T01:18:21.714Z,15.33
2018-05-17T01:20:50.810Z,16.30
2018-05-17T01:23:19.915Z,15.37
2018-05-17T01:25:49.014Z,14.47
2018-05-17T01:28:18.122Z,16.53
2018-05-17T01:30:47.218Z,15.53
2018-05-17T01:33:16.326Z,14.80
2018-05-17T01:35:45.418Z,15.27
2018-05-17T01:38:20.419Z,16.47
2018-05-17T01:40:49.519Z,16.67
2018-05-17T01:43:18.688Z,16.60
2018-05-17T01:45:47.789Z,17.37
2018-05-17T01:48:16.883Z,16.70
2018-05-17T01:50:45.990Z,15.80
2018-05-17T01:53:15.083Z,15.03
2018-05-17T01:55:44.189Z,13.93
2018-05-17T01:58:13.290Z,15.50
2018-05-17T02:00:42.390Z,16.60
2018-05-17T02:03:11.485Z,17.97
2018-05-17T02:05:40.591Z,17.20
2018-05-17T02:08:09.691Z,19.13
2018-05-17T02:10:38.800Z,19.10
2018-05-17T02:13:07.892Z,18.90
2018-05-17T02:15:36.997Z,20.57
2018-05-17T02:18:06.086Z,21.17
2018-05-17T02:20:35.194Z,20.40
2018-05-17T02:23:04.311Z,22.87
2018-05-17T02:25:33.418Z,23.90
2018-05-17T02:28:02.510Z,23.83
2018-05-17T02:30:31.617Z,24.93
2018-05-17T02:33:00.710Z,23.00
2018-05-17T02:35:29.815Z,24.33
2018-05-17T02:37:58.907Z,24.30
2018-05-17T02:40:28.010Z,22.67
2018-05-17T02:42:57.105Z,21.97
2018-05-17T02:45:26.219Z,22.03
2018-05-17T02:47:55.307Z,22.23
2018-05-17T02:50:24.402Z,23.63
2018-05-17T02:52:53.499Z,22.03
2018-05-17T02:55:22.603Z,22.23
2018-05-17T02:57:51.702Z,23.57
2018-05-17T03:00:20.812Z,22.30
2018-05-17T03:02:49.902Z,23.33
2018-05-17T03:05:19.002Z,20.13
2018-05-17T03:07:48.103Z,21.73
2018-05-17T03:10:17.202Z,21.30
2018-05-17T03:12:46.302Z,20.80
2018-05-17T03:15:15.406Z,20.47
2018-05-17T03:17:44.496Z,21.07
2018-05-17T03:20:13.599Z,21.13
2018-05-17T03:22:42.691Z,20.30
2018-05-17T03:25:11.795Z,19.57
2018-05-17T03:27:40.887Z,20.27
2018-05-17T03:30:09.987Z,19.87
2018-05-17T03:32:39.078Z,19.80
2018-05-17T03:35:08.180Z,19.20
2018-05-17T03:37:37.274Z,20.10
2018-05-17T03:40:06.402Z,18.73
2018-05-17T03:42:35.502Z,20.47
2018-05-17T03:45:04.602Z,17.90
2018-05-17T03:47:33.694Z,20.40
2018-05-17T03:50:02.798Z,18.03
2018-05-17T03:52:31.895Z,17.13
2018-05-17T03:55:01.005Z,17.67
2018-05-17T03:57:30.106Z,18.30
2018-05-17T03:59:59.200Z,16.00
2018-05-17T04:02:34.312Z,16.97
2018-05-17T04:05:09.211Z,15.17
2018-05-17T04:07:38.309Z,15.73
2018-05-17T04:10:07.406Z,15.40
2018-05-17T04:12:36.499Z,15.70
2018-05-17T04:15:05.610Z,15.70
2018-05-17T04:17:34.704Z,13.97
2018-05-17T04:20:03.809Z,15.40
2018-05-17T04:22:32.910Z,13.83
2018-05-17T04:25:02.016Z,14.80
2018-05-17T04:27:31.113Z,13.40
2018-05-17T04:30:00.223Z,14.63
2018-05-17T04:32:29.313Z,13.13
2018-05-17T04:34:58.414Z,12.23
2018-05-17T04:37:27.510Z,13.23
2018-05-17T04:39:56.629Z,10.60
2018-05-17T04:42:25.718Z,11.37
2018-05-17T04:44:54.802Z,9.57
2018-05-17T04:47:23.904Z,10.20
2018-05-17T04:49:52.993Z,9.33
2018-05-17T04:52:22.098Z,8.23
2018-05-17T04:54:51.271Z,9.33
2018-05-17T04:57:20.285Z,9.93
2018-05-17T04:59:49.378Z,10.40
2018-05-17T05:02:18.488Z,9.00
2018-05-17T05:04:47.578Z,7.23
2018-05-17T05:07:16.669Z,7.67
2018-05-17T05:09:45.765Z,8.43
2018-05-17T05:12:14.866Z,6.83
2018-05-17T05:14:43.958Z,6.33
2018-05-17T05:17:13.050Z,5.13
2018-05-17T05:19:42.142Z,5.70
2018-05-17T05:22:11.243Z,4.80
2018-05-17T05:24:40.326Z,5.50
2018-05-17T05:27:09.426Z,4.30
2018-05-17T05:29:38.514Z,4.70
2018-05-17T05:32:07.606Z,4.83
2018-05-17T05:34:36.694Z,4.03
2018-05-17T05:37:05.793Z,3.83
2018-05-17T05:39:34.882Z,3.60
2018-05-17T05:42:03.981Z,4.20
2018-05-17T05:44:33.071Z,3.60
2018-05-17T05:47:02.182Z,3.90
2018-05-17T05:49:31.423Z,3.40
2018-05-17T05:52:00.546Z,3.43
2018-05-17T05:54:29.631Z,3.03
2018-05-17T05:56:58.731Z,2.33
2018-05-17T05:59:27.819Z,2.57
2018-05-17T06:01:56.914Z,2.50
2018-05-17T06:04:25.998Z,2.70
2018-05-17T06:06:55.094Z,2.70
2018-05-17T06:09:24.198Z,2.23
2018-05-17T06:11:53.300Z,2.30
2018-05-17T06:14:22.386Z,2.57
2018-05-17T06:16:51.762Z,2.20
2018-05-17T06:19:20.851Z,2.10
2018-05-17T06:21:49.941Z,2.23
2018-05-17T06:24:19.025Z,1.70
2018-05-17T06:26:48.118Z,1.73
2018-05-17T06:29:17.207Z,2.10
2018-05-17T06:31:46.309Z,1.93
2018-05-17T06:34:15.390Z,2.40
2018-05-17T06:36:44.558Z,2.00
2018-05-17T06:39:13.578Z,2.10
2018-05-17T06:41:42.678Z,2.00
2018-05-17T06:44:11.771Z,1.77
2018-05-17T06:46:40.870Z,1.90
2018-05-17T06:49:09.966Z,2.13
2018-05-17T06:51:39.064Z,2.23
2018-05-17T06:54:08.158Z,2.30
2018-05-17T06:56:37.256Z,2.60
2018-05-17T06:59:06.342Z,2.00
2018-05-17T07:01:35.442Z,1.77
2018-05-17T07:04:04.531Z,2.37
2018-05-17T07:06:33.659Z,2.60
2018-05-17T07:09:02.764Z,2.07
2018-05-17T07:11:31.873Z,2.07
2018-05-17T07:14:00.963Z,1.97
2018-05-17T07:16:30.168Z,2.30
2018-05-17T07:18:59.267Z,2.00
2018-05-17T07:21:28.374Z,1.90
2018-05-17T07:23:57.519Z,1.60
2018-05-17T07:26:27.523Z,1.80
2018-05-17T07:28:56.653Z,2.00
2018-05-17T07:31:25.872Z,2.00
2018-05-17T07:33:54.861Z,1.50
2018-05-17T07:36:23.966Z,1.80
2018-05-17T07:38:53.078Z,2.20
2018-05-17T07:41:22.195Z,2.17
2018-05-17T07:43:51.294Z,2.20
2018-05-17T07:46:20.401Z,2.10
2018-05-17T07:48:49.488Z,2.13
2018-05-17T07:51:18.587Z,2.50
2018-05-17T07:53:47.675Z,2.00
2018-05-17T07:56:16.794Z,2.30
2018-05-17T07:58:45.884Z,1.93
2018-05-17T08:01:15.015Z,2.27
2018-05-17T08:03:44.131Z,2.50
2018-05-17T08:06:13.220Z,2.90
2018-05-17T08:08:42.380Z,2.70
2018-05-17T08:11:11.475Z,2.60
2018-05-17T08:13:40.596Z,2.57
2018-05-17T08:16:09.701Z,2.80
2018-05-17T08:18:38.806Z,2.57
2018-05-17T08:21:07.902Z,2.73
2018-05-17T08:23:37.012Z,3.20
2018-05-17T08:26:06.110Z,2.40
2018-05-17T08:28:35.225Z,2.90
2018-05-17T08:31:04.326Z,2.87
2018-05-17T08:33:33.427Z,2.73
2018-05-17T08:36:02.533Z,2.53
2018-05-17T08:38:31.627Z,2.77
2018-05-17T08:41:00.717Z,2.50
2018-05-17T08:43:29.821Z,2.90
2018-05-17T08:45:58.966Z,2.37
2018-05-17T08:48:28.084Z,2.57
2018-05-17T08:50:57.183Z,2.63
2018-05-17T08:53:26.304Z,2.73
2018-05-17T08:55:55.384Z,3.00
2018-05-17T08:58:24.491Z,2.60
2018-05-17T09:00:53.583Z,2.73
2018-05-17T09:03:22.684Z,2.90
2018-05-17T09:05:51.783Z,2.67
2018-05-17T09:08:20.897Z,2.53
2018-05-17T09:10:49.996Z,3.50
2018-05-17T09:13:19.103Z,3.20
2018-05-17T09:15:48.191Z,3.30
2018-05-17T09:18:17.287Z,3.23
2018-05-17T09:20:46.388Z,3.70
2018-05-17T09:23:15.514Z,3.27
2018-05-17T09:25:44.599Z,3.40
2018-05-17T09:28:13.710Z,3.60
2018-05-17T09:30:42.807Z,3.00
2018-05-17T09:33:11.912Z,2.93
2018-05-17T09:35:41.109Z,2.80
2018-05-17T09:38:10.113Z,3.97
2018-05-17T09:40:39.199Z,3.17
2018-05-17T09:43:08.314Z,2.60
2018-05-17T09:45:37.411Z,2.73
2018-05-17T09:48:06.520Z,2.80
2018-05-17T09:50:35.611Z,2.90
2018-05-17T09:53:04.723Z,2.00
2018-05-17T09:55:33.823Z,2.90
2018-05-17T09:58:02.935Z,2.63
2018-05-17T10:00:32.028Z,2.80
2018-05-17T10:03:01.128Z,2.60
2018-05-17T10:05:30.223Z,3.00
2018-05-17T10:07:59.343Z,2.80
2018-05-17T10:10:28.430Z,2.70
2018-05-17T10:12:57.528Z,2.97
2018-05-17T10:15:26.671Z,2.60
2018-05-17T10:17:55.737Z,2.73
2018-05-17T10:20:24.827Z,2.10
2018-05-17T10:22:53.953Z,3.07
2018-05-17T10:25:23.056Z,2.77
2018-05-17T10:27:52.291Z,3.00
2018-05-17T10:30:21.387Z,2.87
2018-05-17T10:32:50.494Z,3.20
2018-05-17T10:35:19.595Z,3.20
2018-05-17T10:37:48.686Z,2.77
2018-05-17T10:40:17.786Z,3.40
2018-05-17T10:42:46.891Z,3.07
2018-05-17T10:45:15.993Z,2.70
2018-05-17T10:47:45.103Z,2.60
2018-05-17T10:50:14.187Z,2.80
2018-05-17T10:52:43.305Z,2.83
2018-05-17T10:55:12.402Z,2.07
2018-05-17T10:57:41.502Z,2.77
2018-05-17T11:00:10.605Z,2.43
2018-05-17T11:02:39.755Z,2.97
2018-05-17T11:05:08.802Z,2.93
2018-05-17T11:07:37.898Z,2.30
2018-05-17T11:10:06.997Z,2.80
2018-05-17T11:12:36.108Z,2.87
2018-05-17T11:15:05.201Z,2.70
2018-05-17T11:17:34.309Z,2.63
2018-05-17T11:20:03.396Z,3.07
2018-05-17T11:22:32.516Z,2.37
2018-05-17T11:25:01.629Z,2.30
2018-05-17T11:27:31.599Z,2.30
2018-05-17T11:30:00.627Z,3.37
2018-05-17T11:32:29.719Z,2.73
2018-05-17T11:34:59.059Z,2.30
2018-05-17T11:37:28.170Z,3.27
2018-05-17T11:39:57.272Z,3.37
2018-05-17T11:42:26.355Z,2.93
2018-05-17T11:44:55.473Z,3.20
2018-05-17T11:47:24.565Z,3.30
2018-05-17T11:49:53.671Z,2.90
2018-05-17T11:52:22.771Z,3.50
2018-05-17T11:54:51.866Z,2.90
2018-05-17T11:57:20.961Z,2.50
2018-05-17T11:59:50.080Z,3.17
2018-05-17T12:02:19.211Z,4.00
2018-05-17T12:04:48.319Z,4.20
2018-05-17T12:07:17.479Z,3.27
2018-05-17T12:09:46.523Z,2.77
2018-05-17T12:12:15.629Z,2.80
2018-05-17T12:14:44.728Z,3.00
2018-05-17T12:17:13.843Z,2.80
2018-05-17T12:19:42.935Z,3.13
2018-05-17T12:22:12.035Z,3.30
2018-05-17T12:24:41.134Z,3.33
2018-05-17T12:27:10.228Z,3.20
2018-05-17T12:29:39.339Z,3.70
2018-05-17T12:32:08.433Z,3.30
2018-05-17T12:34:37.532Z,3.27
2018-05-17T12:37:06.726Z,2.90
2018-05-17T12:39:35.759Z,3.60
2018-05-17T12:42:04.858Z,3.47
2018-05-17T12:44:33.974Z,4.40
2018-05-17T12:47:03.079Z,4.23
2018-05-17T12:49:32.376Z,3.27
2018-05-17T12:52:01.459Z,3.80
2018-05-17T12:54:30.567Z,4.23
2018-05-17T12:56:59.667Z,3.13
2018-05-17T12:59:28.770Z,3.53
2018-05-17T13:01:57.867Z,3.63
2018-05-17T13:04:26.979Z,3.30
2018-05-17T13:06:56.086Z,3.70
2018-05-17T13:09:25.200Z,3.53
2018-05-17T13:11:54.288Z,3.43
2018-05-17T13:14:23.403Z,3.00
2018-05-17T13:16:52.491Z,2.80
2018-05-17T13:19:21.600Z,3.17
2018-05-17T13:21:50.690Z,3.13
2018-05-17T13:24:19.823Z,3.13
2018-05-17T13:26:48.913Z,3.13
2018-05-17T13:29:18.036Z,3.87
2018-05-17T13:31:47.131Z,3.13
2018-05-17T13:34:16.227Z,3.67
2018-05-17T13:36:45.322Z,3.77
2018-05-17T13:39:14.424Z,4.10
2018-05-17T13:41:43.524Z,3.60
2018-05-17T13:44:12.624Z,3.20
2018-05-17T13:46:41.720Z,4.43
2018-05-17T13:49:10.834Z,2.00
2018-05-17T13:51:39.926Z,1.80
2018-05-17T13:54:09.038Z,1.50
2018-05-17T13:56:38.130Z,1.50
2018-05-17T13:59:07.234Z,2.07
2018-05-17T14:01:36.327Z,1.60
2018-05-17T14:04:05.432Z,2.20
2018-05-17T14:06:34.683Z,2.73
2018-05-17T14:09:06.562Z,2.90
2018-05-17T14:11:35.664Z,3.03
2018-05-17T14:14:04.782Z,2.47
2018-05-17T14:16:33.975Z,2.77
2018-05-17T14:19:03.173Z,2.47
2018-05-17T14:21:32.338Z,2.60
2018-05-17T14:24:02.642Z,3.70
2018-05-17T14:26:31.760Z,3.67
2018-05-17T14:29:00.880Z,5.50
2018-05-17T14:31:29.991Z,4.43
2018-05-17T14:33:59.131Z,4.63
2018-05-17T14:36:28.240Z,4.80
2018-05-17T14:38:57.342Z,5.50
2018-05-17T14:41:26.472Z,5.57
2018-05-17T14:43:55.596Z,7.70
2018-05-17T14:46:24.726Z,6.57
2018-05-17T14:48:53.827Z,6.40
2018-05-17T14:51:22.961Z,5.93
2018-05-17T14:53:52.087Z,6.00
2018-05-17T14:56:21.222Z,6.20
2018-05-17T14:58:50.327Z,6.43
2018-05-17T15:01:19.531Z,6.37
2018-05-17T15:03:48.608Z,6.67
2018-05-17T15:06:17.732Z,5.07
2018-05-17T15:08:46.897Z,4.80
2018-05-17T15:11:17.039Z,5.10
2018-05-17T15:13:46.056Z,6.07
2018-05-17T15:16:15.183Z,4.80
2018-05-17T15:18:44.295Z,6.03
2018-05-17T15:21:13.410Z,6.40
2018-05-17T15:23:42.514Z,5.93
2018-05-17T15:26:13.570Z,5.50
2018-05-17T15:28:42.668Z,6.33
2018-05-17T15:31:11.787Z,6.27
2018-05-17T15:33:40.893Z,6.73
2018-05-17T15:36:10.028Z,8.67
2018-05-17T15:38:39.127Z,8.20
2018-05-17T15:41:08.246Z,9.00
2018-05-17T15:43:37.362Z,9.50
2018-05-17T15:46:06.476Z,9.20
2018-05-17T15:48:35.588Z,9.40
2018-05-17T15:51:04.710Z,10.10
2018-05-17T15:53:33.826Z,11.10
2018-05-17T15:56:02.958Z,10.50
2018-05-17T15:58:32.064Z,11.23
2018-05-17T16:01:01.188Z,11.57
2018-05-17T16:03:30.304Z,12.97
2018-05-17T16:05:59.428Z,11.70
2018-05-17T16:08:28.638Z,11.80
2018-05-17T16:10:57.696Z,12.83
2018-05-17T16:13:26.834Z,13.77
2018-05-17T16:15:55.956Z,11.20
2018-05-17T16:18:25.084Z,10.40
2018-05-17T16:20:54.198Z,10.30
2018-05-17T16:23:23.325Z,10.80
2018-05-17T16:25:52.552Z,10.60
2018-05-17T16:28:21.741Z,9.93
2018-05-17T16:30:50.888Z,10.37
2018-05-17T16:33:19.992Z,10.43
2018-05-17T16:35:49.108Z,10.63
2018-05-17T16:38:18.215Z,9.43
2018-05-17T16:40:47.344Z,8.67
2018-05-17T16:43:16.451Z,8.80
2018-05-17T16:45:45.572Z,9.47
2018-05-17T16:48:14.730Z,9.27
2018-05-17T16:50:43.812Z,10.83
2018-05-17T16:53:13.000Z,9.60
2018-05-17T16:55:42.035Z,11.70
2018-05-17T16:58:11.150Z,13.37
2018-05-17T17:00:40.362Z,11.90
2018-05-17T17:03:09.453Z,12.70
2018-05-17T17:05:38.730Z,12.27
2018-05-17T17:08:08.792Z,12.77
2018-05-17T17:10:38.156Z,13.27
2018-05-17T17:13:07.414Z,14.03
2018-05-17T17:15:36.960Z,13.57
2018-05-17T17:18:06.278Z,15.20
2018-05-17T17:20:35.684Z,17.93
2018-05-17T17:23:05.116Z,14.37
2018-05-17T17:25:34.254Z,15.80
2018-05-17T17:28:03.381Z,16.40
2018-05-17T17:30:32.488Z,18.57
2018-05-17T17:33:01.603Z,16.17
2018-05-17T17:35:30.709Z,16.70
2018-05-17T17:37:59.860Z,17.23
2018-05-17T17:40:34.794Z,18.63
2018-05-17T17:43:03.914Z,19.00
2018-05-17T17:45:33.019Z,20.30
2018-05-17T17:48:02.144Z,21.23
2018-05-17T17:50:31.290Z,21.30
2018-05-17T17:53:00.395Z,23.20
2018-05-17T17:55:29.510Z,23.37
2018-05-17T17:57:58.628Z,22.97
2018-05-17T18:00:27.745Z,25.03
2018-05-17T18:02:56.856Z,22.90
2018-05-17T18:05:25.995Z,24.87
2018-05-17T18:07:55.083Z,25.57
2018-05-17T18:10:24.197Z,26.63
2018-05-17T18:12:53.375Z,28.30
2018-05-17T18:15:22.488Z,28.37
2018-05-17T18:17:51.616Z,31.00
2018-05-17T18:20:20.719Z,29.70
2018-05-17T18:22:49.840Z,29.77
2018-05-17T18:25:18.956Z,31.03
2018-05-17T18:27:48.087Z,34.00
2018-05-17T18:30:17.191Z,33.30
2018-05-17T18:32:46.327Z,34.80
2018-05-17T18:35:15.457Z,36.17
2018-05-17T18:37:44.575Z,35.57
2018-05-17T18:40:14.879Z,38.80
2018-05-17T18:42:44.004Z,35.63
2018-05-17T18:45:13.210Z,37.00
2018-05-17T18:47:42.329Z,39.30
2018-05-17T18:50:11.446Z,37.17
2018-05-17T18:52:40.567Z,37.70
2018-05-17T18:55:09.705Z,37.90
2018-05-17T18:57:38.850Z,42.77
2018-05-17T19:00:07.966Z,39.60
2018-05-17T19:02:37.086Z,42.17
2018-05-17T19:05:06.184Z,42.83
2018-05-17T19:07:35.325Z,45.73
2018-05-17T19:10:04.439Z,45.40
2018-05-17T19:12:35.339Z,46.37
2018-05-17T19:15:04.478Z,48.33
2018-05-17T19:17:33.584Z,49.90
2018-05-17T19:20:02.728Z,52.07
2018-05-17T19:22:31.840Z,52.00
2018-05-17T19:25:00.959Z,51.87
2018-05-17T19:27:30.092Z,56.50
2018-05-17T19:29:59.196Z,58.70
2018-05-17T19:32:28.316Z,54.77
2018-05-17T19:34:57.474Z,51.20
2018-05-17T19:37:26.625Z,52.03
2018-05-17T19:39:55.732Z,51.70
2018-05-17T19:42:24.858Z,50.73
2018-05-17T19:44:53.987Z,49.20
2018-05-17T19:47:23.231Z,49.67
2018-05-17T19:49:52.269Z,49.20
2018-05-17T19:52:21.397Z,50.50
2018-05-17T19:54:50.500Z,49.40
2018-05-17T19:57:19.628Z,53.17
2018-05-17T19:59:48.731Z,51.90
2018-05-17T20:02:17.858Z,51.27
2018-05-17T20:04:46.956Z,49.33
2018-05-17T20:07:16.156Z,49.20
2018-05-17T20:09:45.263Z,50.67
2018-05-17T20:12:14.394Z,49.47
2018-05-17T20:14:43.494Z,50.17
2018-05-17T20:17:12.612Z,49.37
2018-05-17T20:19:41.719Z,50.20
2018-05-17T20:22:10.836Z,47.43
2018-05-17T20:24:39.935Z,49.90
2018-05-17T20:27:09.039Z,49.90
2018-05-17T20:29:38.146Z,47.00
2018-05-17T20:32:07.271Z,45.20
2018-05-17T20:34:36.379Z,51.47
2018-05-17T20:37:05.505Z,51.17
2018-05-17T20:39:34.615Z,49.50
2018-05-17T20:42:03.726Z,49.37
2018-05-17T20:44:32.827Z,50.23
2018-05-17T20:47:01.944Z,50.47
2018-05-17T20:49:31.095Z,47.77
2018-05-17T20:52:00.171Z,50.20
2018-05-17T20:54:29.278Z,51.07
2018-05-17T20:56:58.378Z,49.90
2018-05-17T20:59:27.490Z,49.23
2018-05-17T21:01:56.607Z,46.80
2018-05-17T21:04:25.702Z,50.67
2018-05-17T21:06:54.806Z,49.77
2018-05-17T21:09:23.912Z,52.23
2018-05-17T21:11:53.027Z,52.07
2018-05-17T21:14:22.131Z,51.63
2018-05-17T21:16:51.242Z,57.03
2018-05-17T21:19:20.338Z,49.43
2018-05-17T21:21:49.439Z,51.63
2018-05-17T21:24:18.559Z,50.07
2018-05-17T21:26:47.618Z,50.80
2018-05-17T21:29:16.759Z,53.27
2018-05-17T21:31:45.867Z,50.90
2018-05-17T21:34:14.978Z,53.30
2018-05-17T21:36:44.068Z,50.37
2018-05-17T21:39:13.166Z,49.70
2018-05-17T21:41:42.267Z,55.60
2018-05-17T21:44:11.363Z,51.87
2018-05-17T21:46:40.463Z,53.57
2018-05-17T21:49:09.569Z,52.27
2018-05-17T21:51:38.675Z,53.07
2018-05-17T21:54:07.784Z,52.87
2018-05-17T21:56:36.890Z,54.87
2018-05-17T21:59:05.998Z,58.80
2018-05-17T22:01:35.103Z,53.77
2018-05-17T22:04:04.204Z,49.83
2018-05-17T22:06:33.307Z,50.57
2018-05-17T22:09:02.410Z,51.63
2018-05-17T22:11:31.506Z,51.43
2018-05-17T22:14:00.615Z,51.83
2018-05-17T22:16:29.711Z,52.83
2018-05-17T22:18:58.826Z,50.37
2018-05-17T22:21:27.914Z,51.60
2018-05-17T22:23:57.024Z,51.57
2018-05-17T22:26:26.118Z,50.60
2018-05-17T22:28:55.226Z,51.20
2018-05-17T22:31:24.334Z,51.37
2018-05-17T22:33:53.443Z,48.80
2018-05-17T22:36:22.552Z,50.30
2018-05-17T22:38:51.637Z,51.53
2018-05-17T22:41:20.738Z,53.40
2018-05-17T22:43:49.842Z,50.87
2018-05-17T22:46:18.942Z,52.83
2018-05-17T22:48:48.046Z,52.10
2018-05-17T22:51:17.147Z,53.10
2018-05-17T22:53:46.275Z,55.57
2018-05-17T22:56:21.112Z,54.47
2018-05-17T22:58:50.218Z,57.20
2018-05-17T23:01:19.321Z,55.00
2018-05-17T23:03:48.431Z,56.27
2018-05-17T23:06:17.530Z,55.57
2018-05-17T23:08:46.639Z,54.73
2018-05-17T23:11:15.819Z,55.37
2018-05-17T23:13:44.839Z,57.70
2018-05-17T23:16:13.934Z,55.57
2018-05-17T23:18:43.047Z,57.80
2018-05-17T23:21:12.146Z,56.10
2018-05-17T23:23:41.255Z,57.80
2018-05-17T23:26:10.355Z,53.57
2018-05-17T23:28:39.461Z,54.47
2018-05-17T23:31:08.558Z,53.10
2018-05-17T23:33:37.674Z,52.97
2018-05-17T23:36:06.767Z,55.67
2018-05-17T23:38:35.874Z,56.77
2018-05-17T23:41:10.808Z,56.70
2018-05-17T23:43:39.834Z,53.63
2018-05-17T23:46:08.933Z,57.70
2018-05-17T23:48:38.039Z,56.37
2018-05-17T23:51:07.139Z,55.30
2018-05-17T23:53:36.239Z,55.80
2018-05-17T23:56:05.344Z,52.90
2018-05-17T23:58:34.453Z,55.00
